»·PEaware :: N5PX KAVX-KSBP

N5PX :: KAVX-KSBP

FLIGHT INFORMATION

Flight Status: Arrived
Operator: Privately registered:
United States
More flights under this callsign
Pilot: Daniel P. (20187)
Aircraft: BEECH AIRCRAFT SUPER KING AIR 350
(B350)
More flights by this aircraft type
Origin: KAVX Catalina
United States
Destination: KSBP San Luis Co Regl
United States
More flights between these airports :: More routes between these airports
Route: +SXC V208 VTU RZS MQO
File this flight plan on PilotEdge
Remarks:
Altitude:
(Current/Filed)
6,000ft
Speed:
(Current/Filed)
220kts
Departed: 18-Jan-20 11:44 AM
Arrived: 18-Jan-20 12:37 PM
Distance/Time
Traveled:
155nm/0:53
Distance/Time
To Go:
Arrived

Flight Plot

Page will automatically refresh every two minutes.

Flight plan parsing failed; only flown route is shown


Map Options




Map Legend


Flown Route
Filed Route
Departure Airport
Arrival Airport
Navaid (VOR, NDB)
Fix

Horizontal Profiles

Position Reports

Time Latitude Longitude Heading Altitude Ground
Speed
18-Jan-20 11:21 33.403380 -118.415542 268 1550ft 0kts
18-Jan-20 11:22 33.403380 -118.415542 268 1550ft 0kts
18-Jan-20 11:23 33.403380 -118.415542 268 1550ft 0kts
18-Jan-20 11:24 33.403380 -118.415542 268 1550ft 0kts
18-Jan-20 11:25 33.403380 -118.415542 268 1550ft 0kts
18-Jan-20 11:26 33.403380 -118.415542 268 1550ft 0kts
18-Jan-20 11:27 33.403380 -118.415542 268 1550ft 0kts
18-Jan-20 11:28 33.403380 -118.415542 268 1550ft 0kts
18-Jan-20 11:29 33.403380 -118.415542 268 1550ft 0kts
18-Jan-20 11:30 33.403380 -118.415542 268 1550ft 0kts
18-Jan-20 11:31 33.403380 -118.415542 268 1550ft 0kts
18-Jan-20 11:32 33.403380 -118.415542 268 1550ft 0kts
18-Jan-20 11:33 33.403380 -118.415542 268 1550ft 0kts
18-Jan-20 11:34 33.403380 -118.415542 268 1550ft 0kts
18-Jan-20 11:35 33.403380 -118.415542 268 1550ft 0kts
18-Jan-20 11:36 33.403380 -118.415542 268 1550ft 0kts
18-Jan-20 11:37 33.403546 -118.416403 291 1555ft 8kts
18-Jan-20 11:38 33.402857 -118.418709 235 1559ft 10kts
18-Jan-20 11:39 33.402369 -118.419533 237 1555ft 0kts
18-Jan-20 11:40 33.402369 -118.419533 237 1555ft 0kts
18-Jan-20 11:41 33.402369 -118.419533 237 1555ft 0kts
18-Jan-20 11:42 33.402393 -118.419824 305 1554ft 4kts
18-Jan-20 11:43 33.408552 -118.409815 55 1613ft 142kts
18-Jan-20 11:44 33.438898 -118.363477 52 2687ft 195kts
18-Jan-20 11:45 33.470910 -118.314994 51 4136ft 164kts
18-Jan-20 11:46 33.499218 -118.273075 51 5931ft 169kts
18-Jan-20 11:47 33.530888 -118.220083 82 5996ft 217kts
18-Jan-20 11:48 33.486418 -118.190032 212 6006ft 244kts
18-Jan-20 11:49 33.442902 -118.252738 230 5999ft 246kts
18-Jan-20 11:50 33.400410 -118.316960 232 5999ft 246kts
18-Jan-20 11:51 33.388324 -118.396786 274 5999ft 246kts
18-Jan-20 11:52 33.413957 -118.471438 306 6001ft 244kts
18-Jan-20 11:53 33.456345 -118.535171 311 6001ft 244kts
18-Jan-20 11:54 33.500094 -118.597478 311 6002ft 245kts
18-Jan-20 11:55 33.544173 -118.660343 311 6001ft 250kts
18-Jan-20 11:56 33.588986 -118.724370 311 5996ft 248kts
18-Jan-20 11:57 33.632929 -118.787434 311 5999ft 243kts
18-Jan-20 11:58 33.676266 -118.849734 311 6002ft 242kts
18-Jan-20 11:59 33.719562 -118.912016 311 6006ft 242kts
18-Jan-20 12:00 33.762644 -118.974116 311 6014ft 242kts
18-Jan-20 12:01 33.815669 -119.018144 356 6017ft 235kts
18-Jan-20 12:02 33.880867 -119.024706 357 6016ft 235kts
18-Jan-20 12:03 33.944255 -119.031102 357 6009ft 217kts
18-Jan-20 12:04 34.002629 -119.037412 357 6015ft 205kts
18-Jan-20 12:05 34.058534 -119.043334 357 6027ft 199kts
18-Jan-20 12:06 34.112577 -119.053648 331 6037ft 201kts
18-Jan-20 12:07 34.148390 -119.110220 305 6054ft 228kts
18-Jan-20 12:08 34.185193 -119.176167 305 6049ft 242kts
18-Jan-20 12:09 34.222857 -119.244475 304 6053ft 246kts
18-Jan-20 12:10 34.260972 -119.313872 304 6055ft 247kts
18-Jan-20 12:11 34.299117 -119.383506 304 6036ft 249kts
18-Jan-20 12:12 34.337381 -119.453505 304 6037ft 249kts
18-Jan-20 12:13 34.375582 -119.523502 304 6037ft 249kts
18-Jan-20 12:14 34.413899 -119.593845 304 6038ft 249kts
18-Jan-20 12:15 34.452088 -119.664131 304 6035ft 249kts
18-Jan-20 12:16 34.490283 -119.734549 304 6036ft 249kts
18-Jan-20 12:17 34.532525 -119.801041 313 6036ft 248kts
18-Jan-20 12:18 34.579680 -119.862575 314 6036ft 248kts
18-Jan-20 12:19 34.626469 -119.924055 313 6030ft 243kts
18-Jan-20 12:20 34.671111 -119.983097 313 6035ft 231kts
18-Jan-20 12:21 34.712676 -120.038302 313 6035ft 213kts
18-Jan-20 12:22 34.751907 -120.090411 313 6047ft 205kts
18-Jan-20 12:23 34.790735 -120.141929 313 6064ft 212kts
18-Jan-20 12:24 34.831820 -120.196328 313 6062ft 222kts
18-Jan-20 12:25 34.874010 -120.252366 313 6055ft 225kts
18-Jan-20 12:26 34.916469 -120.308924 313 6055ft 226kts
18-Jan-20 12:27 34.958427 -120.365152 312 5516ft 220kts
18-Jan-20 12:28 34.998821 -120.420199 312 4812ft 215kts
18-Jan-20 12:29 35.038498 -120.473975 313 4136ft 211kts
18-Jan-20 12:30 35.075396 -120.523335 313 4039ft 177kts
18-Jan-20 12:31 35.106105 -120.563918 328 4025ft 150kts
18-Jan-20 12:32 35.147509 -120.574506 355 3613ft 153kts
18-Jan-20 12:33 35.188627 -120.577281 353 2626ft 146kts
18-Jan-20 12:34 35.218098 -120.606580 301 1097ft 131kts
18-Jan-20 12:35 35.236207 -120.639034 305 217ft 62kts
18-Jan-20 12:36 35.237771 -120.640951 86 217ft 0kts
18-Jan-20 12:37 35.237771 -120.640951 86 217ft 0kts
18-Jan-20 12:38 35.237771 -120.640951 86 217ft 0kts
18-Jan-20 12:39 35.237776 -120.640876 85 217ft 5kts
18-Jan-20 12:40 35.236607 -120.637826 126 217ft 10kts
18-Jan-20 12:41 35.236270 -120.636323 117 217ft 0kts
18-Jan-20 12:42 35.236270 -120.636322 117 217ft 0kts
18-Jan-20 12:43 35.236270 -120.636323 117 217ft 0kts
18-Jan-20 12:44 35.236270 -120.636323 117 217ft 0kts
18-Jan-20 12:45 35.236270 -120.636323 117 217ft 0kts
18-Jan-20 12:46 35.236270 -120.636323 117 217ft 0kts
18-Jan-20 12:47 35.236270 -120.636323 117 217ft 0kts
18-Jan-20 12:48 35.236270 -120.636323 117 217ft 0kts

Navigation Log

Ident Type
Flight plan parsing failed, navigation log unavailable